sensor_id;sensor_type;location;lat;lon;timestamp;P1;durP1;ratioP1;P2;durP2;ratioP2
46439;SDS011;32138;50.966;6.968;2022-09-25T00:01:16;25.90;;;22.23;;
46439;SDS011;32138;50.966;6.968;2022-09-25T00:03:18;24.13;;;21.52;;
46439;SDS011;32138;50.966;6.968;2022-09-25T00:05:19;25.40;;;22.67;;
46439;SDS011;32138;50.966;6.968;2022-09-25T00:07:20;26.33;;;23.10;;
46439;SDS011;32138;50.966;6.968;2022-09-25T00:09:21;23.88;;;21.25;;
46439;SDS011;32138;50.966;6.968;2022-09-25T00:11:23;27.20;;;24.30;;
46439;SDS011;32138;50.966;6.968;2022-09-25T00:13:29;30.13;;;23.85;;
46439;SDS011;32138;50.966;6.968;2022-09-25T00:15:30;29.08;;;25.17;;
46439;SDS011;32138;50.966;6.968;2022-09-25T00:17:31;27.52;;;23.27;;
46439;SDS011;32138;50.966;6.968;2022-09-25T00:19:32;24.45;;;21.52;;
46439;SDS011;32138;50.966;6.968;2022-09-25T00:21:51;26.83;;;22.95;;
46439;SDS011;32138;50.966;6.968;2022-09-25T00:23:52;26.88;;;23.65;;
46439;SDS011;32138;50.966;6.968;2022-09-25T00:25:53;26.27;;;23.48;;
46439;SDS011;32138;50.966;6.968;2022-09-25T00:27:55;23.63;;;21.17;;
46439;SDS011;32138;50.966;6.968;2022-09-25T00:29:55;26.13;;;22.98;;
46439;SDS011;32138;50.966;6.968;2022-09-25T00:31:58;28.27;;;25.38;;
46439;SDS011;32138;50.966;6.968;2022-09-25T00:34:00;26.67;;;23.77;;
46439;SDS011;32138;50.966;6.968;2022-09-25T00:36:05;28.05;;;24.13;;
46439;SDS011;32138;50.966;6.968;2022-09-25T00:38:08;28.20;;;23.48;;
46439;SDS011;32138;50.966;6.968;2022-09-25T00:40:09;30.00;;;25.52;;
46439;SDS011;32138;50.966;6.968;2022-09-25T00:42:11;31.30;;;27.05;;
46439;SDS011;32138;50.966;6.968;2022-09-25T00:46:55;28.17;;;25.17;;
46439;SDS011;32138;50.966;6.968;2022-09-25T00:49:02;27.35;;;23.42;;
46439;SDS011;32138;50.966;6.968;2022-09-25T00:51:10;27.52;;;24.55;;
46439;SDS011;32138;50.966;6.968;2022-09-25T00:53:11;27.83;;;24.90;;
46439;SDS011;32138;50.966;6.968;2022-09-25T00:55:17;27.92;;;24.80;;
46439;SDS011;32138;50.966;6.968;2022-09-25T00:57:19;30.60;;;25.88;;
46439;SDS011;32138;50.966;6.968;2022-09-25T00:59:39;29.38;;;26.00;;
46439;SDS011;32138;50.966;6.968;2022-09-25T01:01:44;29.60;;;25.02;;
46439;SDS011;32138;50.966;6.968;2022-09-25T01:03:45;29.27;;;26.17;;
46439;SDS011;32138;50.966;6.968;2022-09-25T01:05:46;28.20;;;25.27;;
46439;SDS011;32138;50.966;6.968;2022-09-25T01:07:48;28.67;;;25.70;;
46439;SDS011;32138;50.966;6.968;2022-09-25T01:09:51;28.15;;;25.17;;
46439;SDS011;32138;50.966;6.968;2022-09-25T01:11:58;32.00;;;24.63;;
46439;SDS011;32138;50.966;6.968;2022-09-25T01:13:59;29.38;;;26.00;;
46439;SDS011;32138;50.966;6.968;2022-09-25T01:20:57;30.55;;;27.35;;
46439;SDS011;32138;50.966;6.968;2022-09-25T01:30:48;30.60;;;26.38;;
46439;SDS011;32138;50.966;6.968;2022-09-25T01:33:08;35.33;;;25.88;;
46439;SDS011;32138;50.966;6.968;2022-09-25T01:40:09;29.30;;;25.95;;
46439;SDS011;32138;50.966;6.968;2022-09-25T01:45:03;31.20;;;26.35;;
46439;SDS011;32138;50.966;6.968;2022-09-25T01:47:09;30.55;;;27.00;;
46439;SDS011;32138;50.966;6.968;2022-09-25T01:49:18;31.60;;;25.90;;
46439;SDS011;32138;50.966;6.968;2022-09-25T01:51:27;32.63;;;28.30;;
46439;SDS011;32138;50.966;6.968;2022-09-25T01:53:40;31.45;;;27.75;;
46439;SDS011;32138;50.966;6.968;2022-09-25T01:55:48;29.67;;;26.58;;
46439;SDS011;32138;50.966;6.968;2022-09-25T01:58:08;28.25;;;25.23;;
46439;SDS011;32138;50.966;6.968;2022-09-25T02:00:14;29.77;;;26.20;;
46439;SDS011;32138;50.966;6.968;2022-09-25T02:02:22;29.13;;;25.30;;
46439;SDS011;32138;50.966;6.968;2022-09-25T02:04:33;29.83;;;25.27;;
46439;SDS011;32138;50.966;6.968;2022-09-25T02:06:38;30.63;;;26.80;;
46439;SDS011;32138;50.966;6.968;2022-09-25T02:08:48;28.15;;;25.35;;
46439;SDS011;32138;50.966;6.968;2022-09-25T02:10:55;29.25;;;26.13;;
46439;SDS011;32138;50.966;6.968;2022-09-25T02:13:04;30.55;;;25.52;;
46439;SDS011;32138;50.966;6.968;2022-09-25T02:15:20;29.85;;;25.27;;
46439;SDS011;32138;50.966;6.968;2022-09-25T02:17:28;29.70;;;25.17;;
46439;SDS011;32138;50.966;6.968;2022-09-25T02:20:10;31.30;;;24.48;;
46439;SDS011;32138;50.966;6.968;2022-09-25T02:22:29;26.95;;;23.40;;
46439;SDS011;32138;50.966;6.968;2022-09-25T02:26:55;26.65;;;22.55;;
46439;SDS011;32138;50.966;6.968;2022-09-25T02:28:56;29.92;;;23.77;;
46439;SDS011;32138;50.966;6.968;2022-09-25T02:30:58;27.85;;;23.80;;
46439;SDS011;32138;50.966;6.968;2022-09-25T02:33:01;27.58;;;23.08;;
46439;SDS011;32138;50.966;6.968;2022-09-25T02:35:02;31.65;;;25.33;;
46439;SDS011;32138;50.966;6.968;2022-09-25T02:37:13;26.98;;;22.20;;
46439;SDS011;32138;50.966;6.968;2022-09-25T02:39:18;33.03;;;22.05;;
46439;SDS011;32138;50.966;6.968;2022-09-25T02:44:22;27.05;;;19.90;;
46439;SDS011;32138;50.966;6.968;2022-09-25T02:49:24;27.05;;;20.00;;
46439;SDS011;32138;50.966;6.968;2022-09-25T02:51:51;25.42;;;20.27;;
46439;SDS011;32138;50.966;6.968;2022-09-25T02:54:14;25.23;;;19.33;;
46439;SDS011;32138;50.966;6.968;2022-09-25T02:56:29;22.55;;;17.60;;
46439;SDS011;32138;50.966;6.968;2022-09-25T02:58:51;24.52;;;18.73;;
46439;SDS011;32138;50.966;6.968;2022-09-25T03:00:55;26.35;;;17.55;;
46439;SDS011;32138;50.966;6.968;2022-09-25T03:02:59;24.38;;;18.70;;
46439;SDS011;32138;50.966;6.968;2022-09-25T03:05:03;23.45;;;18.10;;
46439;SDS011;32138;50.966;6.968;2022-09-25T03:07:06;24.25;;;16.83;;
46439;SDS011;32138;50.966;6.968;2022-09-25T03:09:08;23.60;;;16.42;;
46439;SDS011;32138;50.966;6.968;2022-09-25T03:11:11;20.88;;;14.70;;
46439;SDS011;32138;50.966;6.968;2022-09-25T03:13:19;19.95;;;13.00;;
46439;SDS011;32138;50.966;6.968;2022-09-25T03:15:25;17.33;;;13.35;;
46439;SDS011;32138;50.966;6.968;2022-09-25T03:17:26;25.40;;;14.60;;
46439;SDS011;32138;50.966;6.968;2022-09-25T03:19:27;21.88;;;13.07;;
46439;SDS011;32138;50.966;6.968;2022-09-25T03:21:29;21.58;;;13.00;;
46439;SDS011;32138;50.966;6.968;2022-09-25T03:23:30;19.00;;;12.93;;
46439;SDS011;32138;50.966;6.968;2022-09-25T03:25:32;16.50;;;12.52;;
46439;SDS011;32138;50.966;6.968;2022-09-25T03:27:32;16.77;;;11.82;;
46439;SDS011;32138;50.966;6.968;2022-09-25T03:29:33;14.55;;;11.00;;
46439;SDS011;32138;50.966;6.968;2022-09-25T03:31:34;16.38;;;10.52;;
46439;SDS011;32138;50.966;6.968;2022-09-25T03:33:36;16.88;;;9.70;;
46439;SDS011;32138;50.966;6.968;2022-09-25T03:35:40;15.18;;;9.70;;
46439;SDS011;32138;50.966;6.968;2022-09-25T03:37:41;16.33;;;10.90;;
46439;SDS011;32138;50.966;6.968;2022-09-25T03:39:41;16.45;;;10.35;;
46439;SDS011;32138;50.966;6.968;2022-09-25T03:41:42;17.17;;;10.15;;
46439;SDS011;32138;50.966;6.968;2022-09-25T03:43:43;18.60;;;9.40;;
46439;SDS011;32138;50.966;6.968;2022-09-25T03:45:46;15.77;;;8.98;;
46439;SDS011;32138;50.966;6.968;2022-09-25T03:47:47;12.90;;;9.32;;
46439;SDS011;32138;50.966;6.968;2022-09-25T03:49:48;16.20;;;9.68;;
46439;SDS011;32138;50.966;6.968;2022-09-25T03:51:49;12.77;;;8.30;;
46439;SDS011;32138;50.966;6.968;2022-09-25T03:53:50;13.13;;;7.82;;
46439;SDS011;32138;50.966;6.968;2022-09-25T03:55:51;13.00;;;7.82;;
46439;SDS011;32138;50.966;6.968;2022-09-25T03:57:52;16.20;;;7.75;;
46439;SDS011;32138;50.966;6.968;2022-09-25T03:59:53;18.95;;;8.10;;
46439;SDS011;32138;50.966;6.968;2022-09-25T04:01:54;10.55;;;7.43;;
46439;SDS011;32138;50.966;6.968;2022-09-25T04:03:55;17.83;;;8.07;;
46439;SDS011;32138;50.966;6.968;2022-09-25T04:05:56;13.00;;;7.00;;
46439;SDS011;32138;50.966;6.968;2022-09-25T04:07:59;11.73;;;6.10;;
46439;SDS011;32138;50.966;6.968;2022-09-25T04:10:00;16.67;;;5.90;;
46439;SDS011;32138;50.966;6.968;2022-09-25T04:12:01;13.35;;;5.97;;
46439;SDS011;32138;50.966;6.968;2022-09-25T04:14:04;12.50;;;4.90;;
46439;SDS011;32138;50.966;6.968;2022-09-25T04:16:05;10.23;;;4.15;;
46439;SDS011;32138;50.966;6.968;2022-09-25T04:18:07;10.73;;;4.47;;
46439;SDS011;32138;50.966;6.968;2022-09-25T04:20:08;8.43;;;3.97;;
46439;SDS011;32138;50.966;6.968;2022-09-25T04:22:09;9.80;;;3.33;;
46439;SDS011;32138;50.966;6.968;2022-09-25T04:24:10;12.57;;;3.85;;
46439;SDS011;32138;50.966;6.968;2022-09-25T04:26:29;8.30;;;3.03;;
46439;SDS011;32138;50.966;6.968;2022-09-25T04:28:31;11.27;;;3.63;;
46439;SDS011;32138;50.966;6.968;2022-09-25T04:30:32;8.43;;;2.80;;
46439;SDS011;32138;50.966;6.968;2022-09-25T04:32:33;8.70;;;2.90;;
46439;SDS011;32138;50.966;6.968;2022-09-25T04:34:52;10.27;;;2.93;;
46439;SDS011;32138;50.966;6.968;2022-09-25T04:36:53;15.75;;;5.13;;
46439;SDS011;32138;50.966;6.968;2022-09-25T04:38:54;9.93;;;3.30;;
46439;SDS011;32138;50.966;6.968;2022-09-25T04:40:55;9.45;;;2.70;;
46439;SDS011;32138;50.966;6.968;2022-09-25T04:42:57;7.72;;;2.60;;
46439;SDS011;32138;50.966;6.968;2022-09-25T04:45:00;15.38;;;3.25;;
46439;SDS011;32138;50.966;6.968;2022-09-25T04:47:00;9.57;;;2.65;;
46439;SDS011;32138;50.966;6.968;2022-09-25T04:49:03;7.53;;;3.08;;
46439;SDS011;32138;50.966;6.968;2022-09-25T04:51:04;6.63;;;2.90;;
46439;SDS011;32138;50.966;6.968;2022-09-25T04:53:05;10.55;;;3.20;;
46439;SDS011;32138;50.966;6.968;2022-09-25T04:55:05;9.45;;;3.17;;
46439;SDS011;32138;50.966;6.968;2022-09-25T04:57:13;7.30;;;3.03;;
46439;SDS011;32138;50.966;6.968;2022-09-25T04:59:16;9.07;;;2.63;;
46439;SDS011;32138;50.966;6.968;2022-09-25T05:01:17;10.02;;;3.30;;
46439;SDS011;32138;50.966;6.968;2022-09-25T05:03:19;12.15;;;3.20;;
46439;SDS011;32138;50.966;6.968;2022-09-25T05:05:20;7.43;;;2.58;;
46439;SDS011;32138;50.966;6.968;2022-09-25T05:07:21;11.57;;;2.50;;
46439;SDS011;32138;50.966;6.968;2022-09-25T05:09:21;11.90;;;2.80;;
46439;SDS011;32138;50.966;6.968;2022-09-25T05:11:22;9.55;;;2.65;;
46439;SDS011;32138;50.966;6.968;2022-09-25T05:13:23;12.65;;;3.03;;
46439;SDS011;32138;50.966;6.968;2022-09-25T05:15:25;11.27;;;3.03;;
46439;SDS011;32138;50.966;6.968;2022-09-25T05:17:28;8.95;;;2.60;;
46439;SDS011;32138;50.966;6.968;2022-09-25T05:19:28;10.40;;;3.00;;
46439;SDS011;32138;50.966;6.968;2022-09-25T05:21:30;15.80;;;2.95;;
46439;SDS011;32138;50.966;6.968;2022-09-25T05:23:31;10.68;;;3.15;;
46439;SDS011;32138;50.966;6.968;2022-09-25T05:25:32;15.38;;;3.58;;
46439;SDS011;32138;50.966;6.968;2022-09-25T05:27:33;9.63;;;3.05;;
46439;SDS011;32138;50.966;6.968;2022-09-25T05:29:34;14.95;;;3.35;;
46439;SDS011;32138;50.966;6.968;2022-09-25T05:31:34;15.35;;;2.83;;
46439;SDS011;32138;50.966;6.968;2022-09-25T05:33:36;8.98;;;2.70;;
46439;SDS011;32138;50.966;6.968;2022-09-25T05:35:36;13.75;;;2.55;;
46439;SDS011;32138;50.966;6.968;2022-09-25T05:37:37;8.88;;;3.47;;
46439;SDS011;32138;50.966;6.968;2022-09-25T05:39:38;11.23;;;3.17;;
46439;SDS011;32138;50.966;6.968;2022-09-25T05:41:38;8.90;;;2.60;;
46439;SDS011;32138;50.966;6.968;2022-09-25T05:43:40;9.23;;;2.95;;
46439;SDS011;32138;50.966;6.968;2022-09-25T05:45:51;7.45;;;2.67;;
46439;SDS011;32138;50.966;6.968;2022-09-25T05:48:00;9.80;;;2.58;;
46439;SDS011;32138;50.966;6.968;2022-09-25T05:50:03;9.98;;;2.53;;
46439;SDS011;32138;50.966;6.968;2022-09-25T05:52:04;7.88;;;2.22;;
46439;SDS011;32138;50.966;6.968;2022-09-25T05:54:05;9.63;;;2.80;;
46439;SDS011;32138;50.966;6.968;2022-09-25T05:56:06;11.63;;;2.00;;
46439;SDS011;32138;50.966;6.968;2022-09-25T05:58:06;12.88;;;2.25;;
46439;SDS011;32138;50.966;6.968;2022-09-25T06:00:07;11.88;;;2.17;;
46439;SDS011;32138;50.966;6.968;2022-09-25T06:02:12;11.00;;;2.30;;
46439;SDS011;32138;50.966;6.968;2022-09-25T06:04:12;7.53;;;1.63;;
46439;SDS011;32138;50.966;6.968;2022-09-25T06:06:13;6.90;;;1.73;;
46439;SDS011;32138;50.966;6.968;2022-09-25T06:08:14;8.38;;;2.47;;
46439;SDS011;32138;50.966;6.968;2022-09-25T06:10:15;12.00;;;2.03;;
46439;SDS011;32138;50.966;6.968;2022-09-25T06:12:15;9.00;;;2.08;;
46439;SDS011;32138;50.966;6.968;2022-09-25T06:14:17;10.95;;;2.80;;
46439;SDS011;32138;50.966;6.968;2022-09-25T06:16:19;12.18;;;2.28;;
46439;SDS011;32138;50.966;6.968;2022-09-25T06:18:20;12.48;;;2.17;;
46439;SDS011;32138;50.966;6.968;2022-09-25T06:20:22;12.50;;;3.03;;
46439;SDS011;32138;50.966;6.968;2022-09-25T06:22:23;9.93;;;2.10;;
46439;SDS011;32138;50.966;6.968;2022-09-25T06:24:24;8.10;;;2.33;;
46439;SDS011;32138;50.966;6.968;2022-09-25T06:26:25;8.70;;;2.47;;
46439;SDS011;32138;50.966;6.968;2022-09-25T06:28:26;9.60;;;2.35;;
46439;SDS011;32138;50.966;6.968;2022-09-25T06:30:28;14.90;;;2.88;;
46439;SDS011;32138;50.966;6.968;2022-09-25T06:32:35;14.43;;;3.05;;
46439;SDS011;32138;50.966;6.968;2022-09-25T06:34:37;7.75;;;2.97;;
46439;SDS011;32138;50.966;6.968;2022-09-25T06:36:37;9.93;;;2.55;;
46439;SDS011;32138;50.966;6.968;2022-09-25T06:38:38;10.13;;;2.78;;
46439;SDS011;32138;50.966;6.968;2022-09-25T06:40:39;12.63;;;2.55;;
46439;SDS011;32138;50.966;6.968;2022-09-25T06:42:40;6.82;;;2.60;;
46439;SDS011;32138;50.966;6.968;2022-09-25T06:44:41;9.20;;;3.05;;
46439;SDS011;32138;50.966;6.968;2022-09-25T06:46:42;8.25;;;3.38;;
46439;SDS011;32138;50.966;6.968;2022-09-25T06:48:49;9.38;;;2.90;;
46439;SDS011;32138;50.966;6.968;2022-09-25T06:50:54;15.00;;;3.42;;
46439;SDS011;32138;50.966;6.968;2022-09-25T06:52:58;10.30;;;2.67;;
46439;SDS011;32138;50.966;6.968;2022-09-25T06:54:59;14.25;;;3.88;;
46439;SDS011;32138;50.966;6.968;2022-09-25T06:57:00;14.60;;;3.33;;
46439;SDS011;32138;50.966;6.968;2022-09-25T06:59:03;9.55;;;3.25;;
46439;SDS011;32138;50.966;6.968;2022-09-25T07:01:04;7.10;;;3.13;;
46439;SDS011;32138;50.966;6.968;2022-09-25T07:03:09;11.32;;;3.70;;
46439;SDS011;32138;50.966;6.968;2022-09-25T07:05:28;11.80;;;3.88;;
46439;SDS011;32138;50.966;6.968;2022-09-25T07:07:29;16.02;;;4.13;;
46439;SDS011;32138;50.966;6.968;2022-09-25T07:09:30;11.40;;;3.30;;
46439;SDS011;32138;50.966;6.968;2022-09-25T07:11:31;13.90;;;3.47;;
46439;SDS011;32138;50.966;6.968;2022-09-25T07:13:32;14.25;;;4.18;;
46439;SDS011;32138;50.966;6.968;2022-09-25T07:15:34;12.05;;;3.13;;
46439;SDS011;32138;50.966;6.968;2022-09-25T07:17:35;9.13;;;3.58;;
46439;SDS011;32138;50.966;6.968;2022-09-25T07:19:40;11.77;;;4.00;;
46439;SDS011;32138;50.966;6.968;2022-09-25T07:21:40;12.55;;;3.60;;
46439;SDS011;32138;50.966;6.968;2022-09-25T07:23:42;13.38;;;2.97;;
46439;SDS011;32138;50.966;6.968;2022-09-25T07:25:48;10.63;;;3.40;;
46439;SDS011;32138;50.966;6.968;2022-09-25T07:27:49;9.48;;;3.60;;
46439;SDS011;32138;50.966;6.968;2022-09-25T07:29:50;12.27;;;3.50;;
46439;SDS011;32138;50.966;6.968;2022-09-25T07:31:51;9.55;;;3.53;;
46439;SDS011;32138;50.966;6.968;2022-09-25T07:33:52;11.18;;;3.85;;
46439;SDS011;32138;50.966;6.968;2022-09-25T07:35:53;8.05;;;3.20;;
46439;SDS011;32138;50.966;6.968;2022-09-25T07:37:54;12.07;;;3.78;;
46439;SDS011;32138;50.966;6.968;2022-09-25T07:39:56;8.82;;;3.45;;
46439;SDS011;32138;50.966;6.968;2022-09-25T07:41:57;9.98;;;3.25;;
46439;SDS011;32138;50.966;6.968;2022-09-25T07:43:58;8.88;;;3.63;;
46439;SDS011;32138;50.966;6.968;2022-09-25T07:45:59;9.90;;;3.30;;
46439;SDS011;32138;50.966;6.968;2022-09-25T07:48:01;12.43;;;4.25;;
46439;SDS011;32138;50.966;6.968;2022-09-25T07:50:03;13.38;;;3.55;;
46439;SDS011;32138;50.966;6.968;2022-09-25T07:52:04;11.13;;;3.33;;
46439;SDS011;32138;50.966;6.968;2022-09-25T07:54:05;12.55;;;3.92;;
46439;SDS011;32138;50.966;6.968;2022-09-25T07:56:06;11.88;;;3.92;;
46439;SDS011;32138;50.966;6.968;2022-09-25T07:58:08;9.27;;;3.75;;
46439;SDS011;32138;50.966;6.968;2022-09-25T08:00:09;14.20;;;4.03;;
46439;SDS011;32138;50.966;6.968;2022-09-25T08:02:11;8.80;;;3.13;;
46439;SDS011;32138;50.966;6.968;2022-09-25T08:04:11;10.70;;;3.10;;
46439;SDS011;32138;50.966;6.968;2022-09-25T08:06:12;17.20;;;3.75;;
46439;SDS011;32138;50.966;6.968;2022-09-25T08:08:13;14.60;;;4.20;;
46439;SDS011;32138;50.966;6.968;2022-09-25T08:10:14;16.65;;;4.85;;
46439;SDS011;32138;50.966;6.968;2022-09-25T08:12:15;44.70;;;35.33;;
46439;SDS011;32138;50.966;6.968;2022-09-25T08:14:15;40.75;;;31.10;;
46439;SDS011;32138;50.966;6.968;2022-09-25T08:16:17;16.10;;;7.00;;
46439;SDS011;32138;50.966;6.968;2022-09-25T08:18:20;11.63;;;3.70;;
46439;SDS011;32138;50.966;6.968;2022-09-25T08:20:21;12.13;;;4.03;;
46439;SDS011;32138;50.966;6.968;2022-09-25T08:22:22;10.20;;;3.10;;
46439;SDS011;32138;50.966;6.968;2022-09-25T08:24:23;12.57;;;3.13;;
46439;SDS011;32138;50.966;6.968;2022-09-25T08:26:23;10.93;;;3.20;;
46439;SDS011;32138;50.966;6.968;2022-09-25T08:28:24;9.95;;;2.85;;
46439;SDS011;32138;50.966;6.968;2022-09-25T08:30:25;10.77;;;4.28;;
46439;SDS011;32138;50.966;6.968;2022-09-25T08:32:26;37.25;;;25.52;;
46439;SDS011;32138;50.966;6.968;2022-09-25T08:34:27;21.60;;;12.13;;
46439;SDS011;32138;50.966;6.968;2022-09-25T08:36:27;13.05;;;5.43;;
46439;SDS011;32138;50.966;6.968;2022-09-25T08:38:29;12.70;;;3.33;;
46439;SDS011;32138;50.966;6.968;2022-09-25T08:40:33;13.85;;;3.45;;
46439;SDS011;32138;50.966;6.968;2022-09-25T08:42:39;12.05;;;3.10;;
46439;SDS011;32138;50.966;6.968;2022-09-25T08:44:43;13.50;;;2.80;;
46439;SDS011;32138;50.966;6.968;2022-09-25T08:47:20;11.15;;;2.53;;
46439;SDS011;32138;50.966;6.968;2022-09-25T08:49:44;14.38;;;3.03;;
46439;SDS011;32138;50.966;6.968;2022-09-25T08:51:57;14.65;;;2.75;;
46439;SDS011;32138;50.966;6.968;2022-09-25T08:54:02;11.98;;;4.82;;
46439;SDS011;32138;50.966;6.968;2022-09-25T08:56:04;13.43;;;4.90;;
46439;SDS011;32138;50.966;6.968;2022-09-25T08:58:24;18.20;;;7.20;;
46439;SDS011;32138;50.966;6.968;2022-09-25T09:00:28;16.17;;;6.18;;
46439;SDS011;32138;50.966;6.968;2022-09-25T09:02:35;12.68;;;3.45;;
46439;SDS011;32138;50.966;6.968;2022-09-25T09:04:45;14.65;;;3.95;;
46439;SDS011;32138;50.966;6.968;2022-09-25T09:07:02;10.63;;;2.75;;
46439;SDS011;32138;50.966;6.968;2022-09-25T09:09:06;9.85;;;2.50;;
46439;SDS011;32138;50.966;6.968;2022-09-25T09:11:20;11.25;;;2.55;;
46439;SDS011;32138;50.966;6.968;2022-09-25T09:15:52;8.90;;;2.15;;
46439;SDS011;32138;50.966;6.968;2022-09-25T09:18:23;11.52;;;2.50;;
46439;SDS011;32138;50.966;6.968;2022-09-25T09:20:42;17.67;;;2.83;;
46439;SDS011;32138;50.966;6.968;2022-09-25T09:22:53;10.63;;;2.65;;
46439;SDS011;32138;50.966;6.968;2022-09-25T09:27:21;9.68;;;2.42;;
46439;SDS011;32138;50.966;6.968;2022-09-25T09:36:24;22.60;;;13.20;;
46439;SDS011;32138;50.966;6.968;2022-09-25T09:41:28;14.23;;;2.65;;
46439;SDS011;32138;50.966;6.968;2022-09-25T09:50:50;11.15;;;3.60;;
46439;SDS011;32138;50.966;6.968;2022-09-25T09:53:09;19.92;;;11.90;;
46439;SDS011;32138;50.966;6.968;2022-09-25T09:55:39;11.63;;;5.10;;
46439;SDS011;32138;50.966;6.968;2022-09-25T09:57:51;7.50;;;3.20;;
46439;SDS011;32138;50.966;6.968;2022-09-25T10:00:00;9.35;;;2.55;;
46439;SDS011;32138;50.966;6.968;2022-09-25T10:02:13;9.82;;;2.65;;
46439;SDS011;32138;50.966;6.968;2022-09-25T10:04:56;7.90;;;2.75;;
46439;SDS011;32138;50.966;6.968;2022-09-25T10:07:20;7.72;;;1.88;;
46439;SDS011;32138;50.966;6.968;2022-09-25T10:09:22;6.80;;;1.98;;
46439;SDS011;32138;50.966;6.968;2022-09-25T10:11:25;9.73;;;2.05;;
46439;SDS011;32138;50.966;6.968;2022-09-25T10:13:31;12.82;;;2.15;;
46439;SDS011;32138;50.966;6.968;2022-09-25T10:15:44;6.88;;;1.50;;
46439;SDS011;32138;50.966;6.968;2022-09-25T10:18:10;19.17;;;11.05;;
46439;SDS011;32138;50.966;6.968;2022-09-25T10:20:19;7.18;;;4.13;;
46439;SDS011;32138;50.966;6.968;2022-09-25T10:22:24;15.23;;;8.02;;
46439;SDS011;32138;50.966;6.968;2022-09-25T10:24:46;25.55;;;15.68;;
46439;SDS011;32138;50.966;6.968;2022-09-25T10:26:51;9.57;;;2.80;;
46439;SDS011;32138;50.966;6.968;2022-09-25T10:28:52;9.70;;;2.38;;
46439;SDS011;32138;50.966;6.968;2022-09-25T10:30:56;11.50;;;2.42;;
46439;SDS011;32138;50.966;6.968;2022-09-25T10:33:06;8.90;;;1.77;;
46439;SDS011;32138;50.966;6.968;2022-09-25T10:35:19;10.30;;;2.58;;
46439;SDS011;32138;50.966;6.968;2022-09-25T10:37:23;12.88;;;3.63;;
46439;SDS011;32138;50.966;6.968;2022-09-25T10:39:36;11.10;;;1.90;;
46439;SDS011;32138;50.966;6.968;2022-09-25T10:41:41;5.70;;;1.52;;
46439;SDS011;32138;50.966;6.968;2022-09-25T10:44:17;10.35;;;1.98;;
46439;SDS011;32138;50.966;6.968;2022-09-25T10:48:53;7.57;;;1.95;;
46439;SDS011;32138;50.966;6.968;2022-09-25T10:51:35;5.07;;;1.73;;
46439;SDS011;32138;50.966;6.968;2022-09-25T10:53:36;7.78;;;1.80;;
46439;SDS011;32138;50.966;6.968;2022-09-25T10:55:38;6.65;;;1.50;;
46439;SDS011;32138;50.966;6.968;2022-09-25T10:57:45;7.15;;;1.90;;
46439;SDS011;32138;50.966;6.968;2022-09-25T10:59:50;8.18;;;1.33;;
46439;SDS011;32138;50.966;6.968;2022-09-25T11:01:52;7.05;;;1.58;;
46439;SDS011;32138;50.966;6.968;2022-09-25T11:03:55;5.90;;;1.40;;
46439;SDS011;32138;50.966;6.968;2022-09-25T11:05:59;11.70;;;5.20;;
46439;SDS011;32138;50.966;6.968;2022-09-25T11:08:04;14.07;;;8.80;;
46439;SDS011;32138;50.966;6.968;2022-09-25T11:10:17;4.93;;;2.00;;
46439;SDS011;32138;50.966;6.968;2022-09-25T11:12:25;6.50;;;1.70;;
46439;SDS011;32138;50.966;6.968;2022-09-25T11:14:30;5.55;;;1.67;;
46439;SDS011;32138;50.966;6.968;2022-09-25T11:16:43;9.30;;;2.05;;
46439;SDS011;32138;50.966;6.968;2022-09-25T11:25:44;5.82;;;1.10;;
46439;SDS011;32138;50.966;6.968;2022-09-25T11:30:18;5.43;;;1.80;;
46439;SDS011;32138;50.966;6.968;2022-09-25T11:37:44;9.30;;;1.50;;
46439;SDS011;32138;50.966;6.968;2022-09-25T11:40:55;3.75;;;1.20;;
46439;SDS011;32138;50.966;6.968;2022-09-25T11:43:14;5.03;;;1.08;;
46439;SDS011;32138;50.966;6.968;2022-09-25T11:45:26;6.35;;;1.73;;
46439;SDS011;32138;50.966;6.968;2022-09-25T11:47:50;7.75;;;1.67;;
46439;SDS011;32138;50.966;6.968;2022-09-25T11:49:57;7.15;;;1.52;;
46439;SDS011;32138;50.966;6.968;2022-09-25T11:57:44;6.68;;;1.50;;
46439;SDS011;32138;50.966;6.968;2022-09-25T12:11:14;6.13;;;1.60;;
46439;SDS011;32138;50.966;6.968;2022-09-25T12:14:09;5.22;;;1.13;;
46439;SDS011;32138;50.966;6.968;2022-09-25T12:19:15;11.18;;;1.63;;
46439;SDS011;32138;50.966;6.968;2022-09-25T12:24:06;9.93;;;1.25;;
46439;SDS011;32138;50.966;6.968;2022-09-25T12:26:29;3.38;;;0.80;;
46439;SDS011;32138;50.966;6.968;2022-09-25T12:38:25;6.00;;;1.27;;
46439;SDS011;32138;50.966;6.968;2022-09-25T12:40:02;6.10;;;1.42;;
46439;SDS011;32138;50.966;6.968;2022-09-25T12:45:09;8.75;;;1.48;;
46439;SDS011;32138;50.966;6.968;2022-09-25T12:47:41;6.63;;;1.15;;
46439;SDS011;32138;50.966;6.968;2022-09-25T12:50:09;3.95;;;1.13;;
46439;SDS011;32138;50.966;6.968;2022-09-25T12:52:37;4.20;;;1.38;;
46439;SDS011;32138;50.966;6.968;2022-09-25T12:54:49;3.80;;;1.23;;
46439;SDS011;32138;50.966;6.968;2022-09-25T13:04:01;5.50;;;1.20;;
46439;SDS011;32138;50.966;6.968;2022-09-25T13:06:43;2.95;;;1.30;;
46439;SDS011;32138;50.966;6.968;2022-09-25T13:11:43;3.47;;;1.10;;
46439;SDS011;32138;50.966;6.968;2022-09-25T13:13:56;5.82;;;1.55;;
46439;SDS011;32138;50.966;6.968;2022-09-25T13:15:59;5.32;;;1.88;;
46439;SDS011;32138;50.966;6.968;2022-09-25T13:18:05;6.00;;;2.00;;
46439;SDS011;32138;50.966;6.968;2022-09-25T13:22:27;6.25;;;1.98;;
46439;SDS011;32138;50.966;6.968;2022-09-25T13:24:43;6.03;;;2.08;;
46439;SDS011;32138;50.966;6.968;2022-09-25T13:26:52;6.00;;;1.77;;
46439;SDS011;32138;50.966;6.968;2022-09-25T13:28:56;5.30;;;1.92;;
46439;SDS011;32138;50.966;6.968;2022-09-25T13:31:01;5.13;;;1.88;;
46439;SDS011;32138;50.966;6.968;2022-09-25T13:33:12;4.93;;;1.63;;
46439;SDS011;32138;50.966;6.968;2022-09-25T13:35:20;7.72;;;1.83;;
46439;SDS011;32138;50.966;6.968;2022-09-25T13:37:24;4.72;;;1.50;;
46439;SDS011;32138;50.966;6.968;2022-09-25T13:42:01;4.85;;;1.65;;
46439;SDS011;32138;50.966;6.968;2022-09-25T13:46:41;14.50;;;5.68;;
46439;SDS011;32138;50.966;6.968;2022-09-25T13:48:42;6.97;;;2.38;;
46439;SDS011;32138;50.966;6.968;2022-09-25T13:50:44;5.93;;;1.45;;
46439;SDS011;32138;50.966;6.968;2022-09-25T13:54:47;4.07;;;1.20;;
46439;SDS011;32138;50.966;6.968;2022-09-25T13:56:49;4.07;;;1.55;;
46439;SDS011;32138;50.966;6.968;2022-09-25T14:01:36;6.20;;;1.60;;
46439;SDS011;32138;50.966;6.968;2022-09-25T14:03:39;18.25;;;12.93;;
46439;SDS011;32138;50.966;6.968;2022-09-25T14:05:43;10.40;;;6.80;;
46439;SDS011;32138;50.966;6.968;2022-09-25T14:07:44;7.38;;;2.67;;
46439;SDS011;32138;50.966;6.968;2022-09-25T14:09:49;4.60;;;1.80;;
46439;SDS011;32138;50.966;6.968;2022-09-25T14:13:56;13.10;;;1.90;;
46439;SDS011;32138;50.966;6.968;2022-09-25T14:16:01;5.10;;;1.67;;
46439;SDS011;32138;50.966;6.968;2022-09-25T14:18:04;3.72;;;1.65;;
46439;SDS011;32138;50.966;6.968;2022-09-25T14:22:41;8.23;;;2.50;;
46439;SDS011;32138;50.966;6.968;2022-09-25T14:24:49;6.03;;;2.00;;
46439;SDS011;32138;50.966;6.968;2022-09-25T14:26:50;3.92;;;1.45;;
46439;SDS011;32138;50.966;6.968;2022-09-25T14:28:53;5.05;;;1.45;;
46439;SDS011;32138;50.966;6.968;2022-09-25T14:33:43;4.30;;;1.25;;
46439;SDS011;32138;50.966;6.968;2022-09-25T14:43:34;2.20;;;0.85;;
46439;SDS011;32138;50.966;6.968;2022-09-25T14:46:24;4.03;;;1.63;;
46439;SDS011;32138;50.966;6.968;2022-09-25T14:48:34;3.58;;;1.27;;
46439;SDS011;32138;50.966;6.968;2022-09-25T14:50:50;6.78;;;1.30;;
46439;SDS011;32138;50.966;6.968;2022-09-25T14:52:56;5.97;;;1.80;;